sensor_id;sensor_type;location;lat;lon;timestamp;pressure;altitude;pressure_sealevel;temperature;humidity
55077;BME280;40971;44.702;11.030;2023-04-03T00:07:13;101172.97;;;6.77;81.91
55077;BME280;40971;44.702;11.030;2023-04-03T00:17:16;101173.59;;;6.49;82.55
55077;BME280;40971;44.702;11.030;2023-04-03T00:27:17;101161.75;;;6.13;82.71
55077;BME280;40971;44.702;11.030;2023-04-03T00:37:20;101158.06;;;6.16;84.02
55077;BME280;40971;44.702;11.030;2023-04-03T00:47:23;101166.91;;;5.70;86.38
55077;BME280;40971;44.702;11.030;2023-04-03T00:57:26;101156.69;;;6.01;85.28
55077;BME280;40971;44.702;11.030;2023-04-03T01:07:30;101150.78;;;5.88;85.14
55077;BME280;40971;44.702;11.030;2023-04-03T01:17:45;101151.53;;;6.21;85.90
55077;BME280;40971;44.702;11.030;2023-04-03T01:27:47;101141.38;;;6.07;85.60
55077;BME280;40971;44.702;11.030;2023-04-03T01:37:48;101129.28;;;6.59;85.69
55077;BME280;40971;44.702;11.030;2023-04-03T01:47:51;101129.66;;;6.54;83.23
55077;BME280;40971;44.702;11.030;2023-04-03T01:57:54;101133.59;;;6.69;84.37
55077;BME280;40971;44.702;11.030;2023-04-03T02:07:56;101140.47;;;6.70;82.52
55077;BME280;40971;44.702;11.030;2023-04-03T02:17:57;101144.91;;;6.38;83.23
55077;BME280;40971;44.702;11.030;2023-04-03T02:27:59;101120.72;;;6.57;83.39
55077;BME280;40971;44.702;11.030;2023-04-03T02:48:22;101139.19;;;6.85;83.14
55077;BME280;40971;44.702;11.030;2023-04-03T02:58:24;101131.81;;;6.49;82.16
55077;BME280;40971;44.702;11.030;2023-04-03T03:08:26;101135.13;;;6.51;82.58
55077;BME280;40971;44.702;11.030;2023-04-03T03:18:27;101137.03;;;6.17;83.11
55077;BME280;40971;44.702;11.030;2023-04-03T03:28:32;101121.66;;;6.03;83.90
55077;BME280;40971;44.702;11.030;2023-04-03T03:38:34;101116.25;;;5.95;84.21
55077;BME280;40971;44.702;11.030;2023-04-03T03:48:34;101113.88;;;5.92;85.07
55077;BME280;40971;44.702;11.030;2023-04-03T03:58:39;101118.09;;;6.15;84.25
55077;BME280;40971;44.702;11.030;2023-04-03T04:08:43;101125.41;;;6.21;83.84
55077;BME280;40971;44.702;11.030;2023-04-03T04:18:44;101139.50;;;6.51;82.62
55077;BME280;40971;44.702;11.030;2023-04-03T04:39:28;101145.84;;;6.16;82.17
55077;BME280;40971;44.702;11.030;2023-04-03T04:49:29;101144.38;;;6.23;82.69
55077;BME280;40971;44.702;11.030;2023-04-03T04:59:32;101148.66;;;6.24;81.68
55077;BME280;40971;44.702;11.030;2023-04-03T05:09:38;101147.72;;;6.14;81.88
55077;BME280;40971;44.702;11.030;2023-04-03T05:19:44;101169.63;;;6.02;81.48
55077;BME280;40971;44.702;11.030;2023-04-03T05:29:46;101176.47;;;6.03;82.83
55077;BME280;40971;44.702;11.030;2023-04-03T05:39:47;101171.13;;;6.16;82.87
55077;BME280;40971;44.702;11.030;2023-04-03T05:49:49;101180.47;;;6.18;84.05
55077;BME280;40971;44.702;11.030;2023-04-03T05:59:50;101175.81;;;6.54;83.97
55077;BME280;40971;44.702;11.030;2023-04-03T06:09:55;101187.94;;;6.96;83.21
55077;BME280;40971;44.702;11.030;2023-04-03T06:19:58;101200.41;;;7.34;82.37
55077;BME280;40971;44.702;11.030;2023-04-03T06:30:18;101207.63;;;7.81;82.04
55077;BME280;40971;44.702;11.030;2023-04-03T06:40:24;101215.59;;;8.29;81.72
55077;BME280;40971;44.702;11.030;2023-04-03T06:50:27;101210.91;;;8.71;82.85
55077;BME280;40971;44.702;11.030;2023-04-03T07:00:30;101221.66;;;9.53;81.46
55077;BME280;40971;44.702;11.030;2023-04-03T07:10:32;101220.31;;;10.13;79.99
55077;BME280;40971;44.702;11.030;2023-04-03T07:20:35;101229.59;;;11.39;74.38
55077;BME280;40971;44.702;11.030;2023-04-03T07:30:49;101242.38;;;12.67;73.28
55077;BME280;40971;44.702;11.030;2023-04-03T07:40:54;101246.53;;;12.70;72.28
55077;BME280;40971;44.702;11.030;2023-04-03T07:51:02;101251.78;;;13.02;70.82
55077;BME280;40971;44.702;11.030;2023-04-03T08:01:05;101248.22;;;13.74;67.19
55077;BME280;40971;44.702;11.030;2023-04-03T08:11:11;101259.41;;;14.99;65.40
55077;BME280;40971;44.702;11.030;2023-04-03T08:21:13;101250.50;;;15.15;65.51
55077;BME280;40971;44.702;11.030;2023-04-03T08:31:17;101261.34;;;14.83;65.07
55077;BME280;40971;44.702;11.030;2023-04-03T08:51:56;101255.81;;;16.32;57.85
55077;BME280;40971;44.702;11.030;2023-04-03T09:02:04;101262.00;;;14.31;63.30
55077;BME280;40971;44.702;11.030;2023-04-03T09:22:21;101256.75;;;13.29;68.47
55077;BME280;40971;44.702;11.030;2023-04-03T09:32:33;101254.66;;;13.72;68.83
55077;BME280;40971;44.702;11.030;2023-04-03T09:42:40;101247.81;;;14.32;64.35
55077;BME280;40971;44.702;11.030;2023-04-03T09:52:49;101243.72;;;14.52;65.25
55077;BME280;40971;44.702;11.030;2023-04-03T10:02:54;101232.03;;;13.77;64.17
55077;BME280;40971;44.702;11.030;2023-04-03T10:23:21;101218.34;;;15.03;57.04
55077;BME280;40971;44.702;11.030;2023-04-03T10:54:30;101194.81;;;14.86;53.89
55077;BME280;40971;44.702;11.030;2023-04-03T11:04:55;101196.88;;;14.30;60.51
55077;BME280;40971;44.702;11.030;2023-04-03T11:15:02;101195.72;;;13.16;63.53
55077;BME280;40971;44.702;11.030;2023-04-03T11:35:13;101192.28;;;13.63;60.70
55077;BME280;40971;44.702;11.030;2023-04-03T11:45:49;101185.22;;;14.47;56.32
55077;BME280;40971;44.702;11.030;2023-04-03T11:56:26;101176.31;;;13.87;57.01
55077;BME280;40971;44.702;11.030;2023-04-03T12:16:21;101145.75;;;15.56;48.61
55077;BME280;40971;44.702;11.030;2023-04-03T12:26:25;101139.00;;;15.54;51.02
55077;BME280;40971;44.702;11.030;2023-04-03T12:36:39;101134.69;;;16.03;44.70
55077;BME280;40971;44.702;11.030;2023-04-03T12:46:49;101116.25;;;16.38;46.86
55077;BME280;40971;44.702;11.030;2023-04-03T12:57:15;101119.72;;;14.87;49.98
55077;BME280;40971;44.702;11.030;2023-04-03T13:07:25;101113.16;;;15.12;43.34
55077;BME280;40971;44.702;11.030;2023-04-03T13:17:29;101090.34;;;16.18;36.29
55077;BME280;40971;44.702;11.030;2023-04-03T13:27:31;101094.81;;;16.39;32.94
55077;BME280;40971;44.702;11.030;2023-04-03T13:37:33;101085.97;;;16.32;32.66
55077;BME280;40971;44.702;11.030;2023-04-03T13:47:40;101077.25;;;16.17;32.98
55077;BME280;40971;44.702;11.030;2023-04-03T13:58:22;101077.78;;;15.85;33.51
55077;BME280;40971;44.702;11.030;2023-04-03T14:08:23;101071.06;;;15.67;32.98
55077;BME280;40971;44.702;11.030;2023-04-03T14:18:24;101053.34;;;15.89;34.79
55077;BME280;40971;44.702;11.030;2023-04-03T14:28:26;101064.13;;;15.66;37.26
55077;BME280;40971;44.702;11.030;2023-04-03T14:38:29;101040.88;;;16.11;34.50
55077;BME280;40971;44.702;11.030;2023-04-03T14:48:31;101040.28;;;15.88;36.27
55077;BME280;40971;44.702;11.030;2023-04-03T14:58:32;101043.69;;;16.03;34.23
55077;BME280;40971;44.702;11.030;2023-04-03T15:08:33;101050.13;;;15.22;35.71
55077;BME280;40971;44.702;11.030;2023-04-03T15:18:37;101056.25;;;15.08;34.54
55077;BME280;40971;44.702;11.030;2023-04-03T15:39:01;101056.16;;;15.16;30.24
55077;BME280;40971;44.702;11.030;2023-04-03T15:49:02;101037.34;;;15.11;31.77
55077;BME280;40971;44.702;11.030;2023-04-03T15:59:04;101047.25;;;14.88;32.91
55077;BME280;40971;44.702;11.030;2023-04-03T16:09:06;101045.38;;;14.44;33.33
55077;BME280;40971;44.702;11.030;2023-04-03T16:19:09;101055.13;;;14.44;33.29
55077;BME280;40971;44.702;11.030;2023-04-03T16:29:10;101054.69;;;14.18;33.35
55077;BME280;40971;44.702;11.030;2023-04-03T16:39:30;101048.28;;;14.35;35.76
55077;BME280;40971;44.702;11.030;2023-04-03T16:49:31;101067.84;;;14.26;35.30
55077;BME280;40971;44.702;11.030;2023-04-03T16:59:35;101072.78;;;13.83;37.33
55077;BME280;40971;44.702;11.030;2023-04-03T17:09:36;101078.84;;;13.61;39.53
55077;BME280;40971;44.702;11.030;2023-04-03T17:19:39;101083.56;;;12.96;40.60
55077;BME280;40971;44.702;11.030;2023-04-03T17:29:42;101087.94;;;12.41;42.25
55077;BME280;40971;44.702;11.030;2023-04-03T17:40:02;101090.91;;;11.97;43.04
55077;BME280;40971;44.702;11.030;2023-04-03T17:50:03;101101.59;;;11.46;44.54
55077;BME280;40971;44.702;11.030;2023-04-03T18:00:05;101108.97;;;11.08;45.68
55077;BME280;40971;44.702;11.030;2023-04-03T18:10:07;101123.97;;;10.82;47.79
55077;BME280;40971;44.702;11.030;2023-04-03T18:20:10;101135.25;;;10.31;49.24
55077;BME280;40971;44.702;11.030;2023-04-03T18:30:15;101151.13;;;10.12;50.36
55077;BME280;40971;44.702;11.030;2023-04-03T18:40:18;101168.31;;;9.62;51.81
55077;BME280;40971;44.702;11.030;2023-04-03T18:50:19;101184.34;;;9.22;54.46
55077;BME280;40971;44.702;11.030;2023-04-03T19:00:21;101201.00;;;8.74;57.30
55077;BME280;40971;44.702;11.030;2023-04-03T19:10:23;101215.34;;;8.70;57.94
55077;BME280;40971;44.702;11.030;2023-04-03T19:20:27;101235.34;;;8.52;58.66
55077;BME280;40971;44.702;11.030;2023-04-03T19:30:28;101246.50;;;8.35;59.42
55077;BME280;40971;44.702;11.030;2023-04-03T19:40:32;101258.00;;;8.04;60.63
55077;BME280;40971;44.702;11.030;2023-04-03T19:50:52;101269.41;;;8.03;61.23
55077;BME280;40971;44.702;11.030;2023-04-03T20:00:54;101283.75;;;8.08;61.11
55077;BME280;40971;44.702;11.030;2023-04-03T20:11:01;101285.91;;;7.94;62.32
55077;BME280;40971;44.702;11.030;2023-04-03T20:21:07;101298.50;;;7.79;63.29
55077;BME280;40971;44.702;11.030;2023-04-03T20:31:11;101312.50;;;7.69;63.68
55077;BME280;40971;44.702;11.030;2023-04-03T20:41:14;101323.81;;;7.48;64.07
55077;BME280;40971;44.702;11.030;2023-04-03T20:51:18;101327.22;;;6.44;68.02
55077;BME280;40971;44.702;11.030;2023-04-03T21:01:21;101337.06;;;6.40;68.26
55077;BME280;40971;44.702;11.030;2023-04-03T21:22:00;101322.59;;;6.25;69.77
55077;BME280;40971;44.702;11.030;2023-04-03T21:32:02;101327.72;;;6.16;70.65
55077;BME280;40971;44.702;11.030;2023-04-03T21:42:03;101333.25;;;5.78;71.70
55077;BME280;40971;44.702;11.030;2023-04-03T21:52:04;101339.66;;;5.63;72.61
55077;BME280;40971;44.702;11.030;2023-04-03T22:02:05;101342.97;;;5.65;73.63
55077;BME280;40971;44.702;11.030;2023-04-03T22:12:06;101344.63;;;5.66;73.66
55077;BME280;40971;44.702;11.030;2023-04-03T22:22:09;101358.84;;;5.62;73.53
55077;BME280;40971;44.702;11.030;2023-04-03T22:32:10;101353.16;;;5.57;73.17
55077;BME280;40971;44.702;11.030;2023-04-03T22:42:11;101367.53;;;5.27;73.95
55077;BME280;40971;44.702;11.030;2023-04-03T22:52:12;101378.28;;;5.23;74.92
55077;BME280;40971;44.702;11.030;2023-04-03T23:02:14;101362.72;;;5.10;74.47
55077;BME280;40971;44.702;11.030;2023-04-03T23:12:15;101379.13;;;5.23;74.46
55077;BME280;40971;44.702;11.030;2023-04-03T23:22:17;101382.75;;;5.10;74.17
55077;BME280;40971;44.702;11.030;2023-04-03T23:32:18;101372.94;;;5.13;71.95
55077;BME280;40971;44.702;11.030;2023-04-03T23:42:19;101370.81;;;5.18;69.86
55077;BME280;40971;44.702;11.030;2023-04-03T23:52:20;101378.38;;;5.10;66.79
